sensor_id;sensor_type;location;lat;lon;timestamp;P1;durP1;ratioP1;P2;durP2;ratioP2
5333;SDS011;2689;50.954;7.116;2023-11-19T00:00:37;1.67;;;1.27;;
5333;SDS011;2689;50.954;7.116;2023-11-19T00:03:04;1.23;;;1.00;;
5333;SDS011;2689;50.954;7.116;2023-11-19T00:05:31;1.43;;;1.13;;
5333;SDS011;2689;50.954;7.116;2023-11-19T00:07:58;1.80;;;1.30;;
5333;SDS011;2689;50.954;7.116;2023-11-19T00:10:25;1.97;;;1.13;;
5333;SDS011;2689;50.954;7.116;2023-11-19T00:12:52;1.83;;;1.23;;
5333;SDS011;2689;50.954;7.116;2023-11-19T00:15:18;2.57;;;1.07;;
5333;SDS011;2689;50.954;7.116;2023-11-19T00:17:47;1.30;;;1.00;;
5333;SDS011;2689;50.954;7.116;2023-11-19T00:20:15;1.53;;;1.20;;
5333;SDS011;2689;50.954;7.116;2023-11-19T00:22:42;1.30;;;1.00;;
5333;SDS011;2689;50.954;7.116;2023-11-19T00:25:11;2.17;;;1.33;;
5333;SDS011;2689;50.954;7.116;2023-11-19T00:27:38;1.20;;;0.90;;
5333;SDS011;2689;50.954;7.116;2023-11-19T00:30:07;1.20;;;0.90;;
5333;SDS011;2689;50.954;7.116;2023-11-19T00:32:35;1.30;;;1.00;;
5333;SDS011;2689;50.954;7.116;2023-11-19T00:35:05;2.70;;;1.00;;
5333;SDS011;2689;50.954;7.116;2023-11-19T00:37:32;1.00;;;0.87;;
5333;SDS011;2689;50.954;7.116;2023-11-19T00:39:59;1.57;;;1.03;;
5333;SDS011;2689;50.954;7.116;2023-11-19T00:42:26;1.57;;;0.90;;
5333;SDS011;2689;50.954;7.116;2023-11-19T00:44:53;1.23;;;0.90;;
5333;SDS011;2689;50.954;7.116;2023-11-19T00:47:21;3.33;;;1.53;;
5333;SDS011;2689;50.954;7.116;2023-11-19T00:49:47;1.30;;;1.20;;
5333;SDS011;2689;50.954;7.116;2023-11-19T00:52:16;1.67;;;1.40;;
5333;SDS011;2689;50.954;7.116;2023-11-19T00:54:44;1.73;;;1.37;;
5333;SDS011;2689;50.954;7.116;2023-11-19T00:57:10;1.70;;;1.23;;
5333;SDS011;2689;50.954;7.116;2023-11-19T00:59:37;1.77;;;1.20;;
5333;SDS011;2689;50.954;7.116;2023-11-19T01:02:04;2.73;;;1.20;;
5333;SDS011;2689;50.954;7.116;2023-11-19T01:04:33;2.13;;;1.20;;
5333;SDS011;2689;50.954;7.116;2023-11-19T01:07:01;1.40;;;1.00;;
5333;SDS011;2689;50.954;7.116;2023-11-19T01:09:31;1.70;;;0.97;;
5333;SDS011;2689;50.954;7.116;2023-11-19T01:12:00;24.03;;;1.87;;
5333;SDS011;2689;50.954;7.116;2023-11-19T01:14:28;1.30;;;1.00;;
5333;SDS011;2689;50.954;7.116;2023-11-19T01:16:57;1.70;;;1.07;;
5333;SDS011;2689;50.954;7.116;2023-11-19T01:19:24;1.13;;;0.80;;
5333;SDS011;2689;50.954;7.116;2023-11-19T01:21:51;1.50;;;1.00;;
5333;SDS011;2689;50.954;7.116;2023-11-19T01:24:18;3.30;;;1.10;;
5333;SDS011;2689;50.954;7.116;2023-11-19T01:26:46;2.23;;;1.00;;
5333;SDS011;2689;50.954;7.116;2023-11-19T01:29:14;1.87;;;1.20;;
5333;SDS011;2689;50.954;7.116;2023-11-19T01:31:42;1.63;;;1.10;;
5333;SDS011;2689;50.954;7.116;2023-11-19T01:34:11;1.40;;;1.00;;
5333;SDS011;2689;50.954;7.116;2023-11-19T01:36:38;1.50;;;1.10;;
5333;SDS011;2689;50.954;7.116;2023-11-19T01:39:05;1.73;;;1.10;;
5333;SDS011;2689;50.954;7.116;2023-11-19T01:41:34;2.20;;;1.10;;
5333;SDS011;2689;50.954;7.116;2023-11-19T01:44:03;1.53;;;1.10;;
5333;SDS011;2689;50.954;7.116;2023-11-19T01:46:31;2.27;;;1.10;;
5333;SDS011;2689;50.954;7.116;2023-11-19T01:48:59;1.93;;;1.10;;
5333;SDS011;2689;50.954;7.116;2023-11-19T01:51:27;2.13;;;1.23;;
5333;SDS011;2689;50.954;7.116;2023-11-19T01:53:59;2.53;;;1.20;;
5333;SDS011;2689;50.954;7.116;2023-11-19T01:56:42;3.17;;;1.17;;
5333;SDS011;2689;50.954;7.116;2023-11-19T01:59:11;1.00;;;0.90;;
5333;SDS011;2689;50.954;7.116;2023-11-19T02:01:40;1.40;;;1.17;;
5333;SDS011;2689;50.954;7.116;2023-11-19T02:04:10;2.10;;;1.20;;
5333;SDS011;2689;50.954;7.116;2023-11-19T02:06:40;1.47;;;1.07;;
5333;SDS011;2689;50.954;7.116;2023-11-19T02:11:50;1.50;;;1.07;;
5333;SDS011;2689;50.954;7.116;2023-11-19T02:14:18;1.77;;;1.10;;
5333;SDS011;2689;50.954;7.116;2023-11-19T02:16:53;1.97;;;1.40;;
5333;SDS011;2689;50.954;7.116;2023-11-19T02:19:20;2.10;;;1.10;;
5333;SDS011;2689;50.954;7.116;2023-11-19T02:21:47;1.20;;;1.00;;
5333;SDS011;2689;50.954;7.116;2023-11-19T02:24:16;2.07;;;1.10;;
5333;SDS011;2689;50.954;7.116;2023-11-19T02:26:51;2.07;;;1.23;;
5333;SDS011;2689;50.954;7.116;2023-11-19T02:29:26;4.90;;;1.33;;
5333;SDS011;2689;50.954;7.116;2023-11-19T02:31:53;1.80;;;1.07;;
5333;SDS011;2689;50.954;7.116;2023-11-19T02:34:21;1.17;;;1.00;;
5333;SDS011;2689;50.954;7.116;2023-11-19T02:36:50;1.40;;;0.97;;
5333;SDS011;2689;50.954;7.116;2023-11-19T02:39:18;1.20;;;1.00;;
5333;SDS011;2689;50.954;7.116;2023-11-19T02:41:46;1.60;;;1.20;;
5333;SDS011;2689;50.954;7.116;2023-11-19T02:44:15;4.33;;;1.20;;
5333;SDS011;2689;50.954;7.116;2023-11-19T02:46:44;2.97;;;1.47;;
5333;SDS011;2689;50.954;7.116;2023-11-19T02:49:13;2.03;;;1.30;;
5333;SDS011;2689;50.954;7.116;2023-11-19T02:51:40;3.33;;;1.50;;
5333;SDS011;2689;50.954;7.116;2023-11-19T02:54:07;3.53;;;1.40;;
5333;SDS011;2689;50.954;7.116;2023-11-19T02:56:35;2.50;;;1.30;;
5333;SDS011;2689;50.954;7.116;2023-11-19T02:59:04;7.17;;;1.73;;
5333;SDS011;2689;50.954;7.116;2023-11-19T03:01:40;4.80;;;1.73;;
5333;SDS011;2689;50.954;7.116;2023-11-19T03:04:10;9.63;;;2.00;;
5333;SDS011;2689;50.954;7.116;2023-11-19T03:06:37;3.80;;;1.50;;
5333;SDS011;2689;50.954;7.116;2023-11-19T03:09:04;5.70;;;1.27;;
5333;SDS011;2689;50.954;7.116;2023-11-19T03:11:35;5.40;;;1.30;;
5333;SDS011;2689;50.954;7.116;2023-11-19T03:14:02;6.87;;;1.60;;
5333;SDS011;2689;50.954;7.116;2023-11-19T03:16:29;5.40;;;1.70;;
5333;SDS011;2689;50.954;7.116;2023-11-19T03:18:57;3.50;;;1.70;;
5333;SDS011;2689;50.954;7.116;2023-11-19T03:21:28;3.53;;;1.90;;
5333;SDS011;2689;50.954;7.116;2023-11-19T03:23:58;5.10;;;1.87;;
5333;SDS011;2689;50.954;7.116;2023-11-19T03:26:25;8.03;;;1.90;;
5333;SDS011;2689;50.954;7.116;2023-11-19T03:28:55;5.13;;;2.07;;
5333;SDS011;2689;50.954;7.116;2023-11-19T03:31:24;3.50;;;1.60;;
5333;SDS011;2689;50.954;7.116;2023-11-19T03:33:51;11.40;;;2.10;;
5333;SDS011;2689;50.954;7.116;2023-11-19T03:36:17;5.10;;;2.10;;
5333;SDS011;2689;50.954;7.116;2023-11-19T03:38:46;8.47;;;2.50;;
5333;SDS011;2689;50.954;7.116;2023-11-19T03:41:12;4.57;;;1.93;;
5333;SDS011;2689;50.954;7.116;2023-11-19T03:43:41;6.90;;;1.80;;
5333;SDS011;2689;50.954;7.116;2023-11-19T03:46:15;4.80;;;1.93;;
5333;SDS011;2689;50.954;7.116;2023-11-19T03:48:43;5.97;;;1.97;;
5333;SDS011;2689;50.954;7.116;2023-11-19T03:51:11;10.87;;;2.07;;
5333;SDS011;2689;50.954;7.116;2023-11-19T03:53:40;8.50;;;2.30;;
5333;SDS011;2689;50.954;7.116;2023-11-19T03:56:09;7.60;;;4.17;;
5333;SDS011;2689;50.954;7.116;2023-11-19T03:58:37;9.23;;;1.80;;
5333;SDS011;2689;50.954;7.116;2023-11-19T04:03:50;5.87;;;2.10;;
5333;SDS011;2689;50.954;7.116;2023-11-19T04:06:17;5.03;;;2.20;;
5333;SDS011;2689;50.954;7.116;2023-11-19T04:08:44;9.60;;;2.63;;
5333;SDS011;2689;50.954;7.116;2023-11-19T04:11:12;16.40;;;2.40;;
5333;SDS011;2689;50.954;7.116;2023-11-19T04:13:39;6.07;;;2.33;;
5333;SDS011;2689;50.954;7.116;2023-11-19T04:16:06;12.80;;;2.33;;
5333;SDS011;2689;50.954;7.116;2023-11-19T04:18:33;11.70;;;2.93;;
5333;SDS011;2689;50.954;7.116;2023-11-19T04:21:00;8.73;;;2.20;;
5333;SDS011;2689;50.954;7.116;2023-11-19T04:23:26;11.03;;;3.07;;
5333;SDS011;2689;50.954;7.116;2023-11-19T04:25:53;11.60;;;2.77;;
5333;SDS011;2689;50.954;7.116;2023-11-19T04:28:23;6.20;;;2.77;;
5333;SDS011;2689;50.954;7.116;2023-11-19T04:30:52;7.97;;;2.57;;
5333;SDS011;2689;50.954;7.116;2023-11-19T04:33:18;10.53;;;2.63;;
5333;SDS011;2689;50.954;7.116;2023-11-19T04:35:45;5.60;;;2.50;;
5333;SDS011;2689;50.954;7.116;2023-11-19T04:38:12;11.60;;;2.40;;
5333;SDS011;2689;50.954;7.116;2023-11-19T04:40:39;12.63;;;2.80;;
5333;SDS011;2689;50.954;7.116;2023-11-19T04:43:07;8.50;;;2.50;;
5333;SDS011;2689;50.954;7.116;2023-11-19T04:45:35;13.17;;;3.27;;
5333;SDS011;2689;50.954;7.116;2023-11-19T04:48:02;8.17;;;2.73;;
5333;SDS011;2689;50.954;7.116;2023-11-19T04:50:28;15.30;;;2.57;;
5333;SDS011;2689;50.954;7.116;2023-11-19T04:52:55;12.67;;;2.57;;
5333;SDS011;2689;50.954;7.116;2023-11-19T04:55:22;9.10;;;2.50;;
5333;SDS011;2689;50.954;7.116;2023-11-19T04:57:49;12.33;;;2.33;;
5333;SDS011;2689;50.954;7.116;2023-11-19T05:00:15;9.07;;;2.80;;
5333;SDS011;2689;50.954;7.116;2023-11-19T05:02:43;11.30;;;3.07;;
5333;SDS011;2689;50.954;7.116;2023-11-19T05:05:10;11.70;;;2.80;;
5333;SDS011;2689;50.954;7.116;2023-11-19T05:07:37;11.20;;;3.40;;
5333;SDS011;2689;50.954;7.116;2023-11-19T05:10:04;16.63;;;2.70;;
5333;SDS011;2689;50.954;7.116;2023-11-19T05:12:32;16.50;;;2.97;;
5333;SDS011;2689;50.954;7.116;2023-11-19T05:14:59;17.50;;;3.30;;
5333;SDS011;2689;50.954;7.116;2023-11-19T05:17:25;9.40;;;2.80;;
5333;SDS011;2689;50.954;7.116;2023-11-19T05:19:53;12.10;;;3.30;;
5333;SDS011;2689;50.954;7.116;2023-11-19T05:22:20;10.60;;;3.43;;
5333;SDS011;2689;50.954;7.116;2023-11-19T05:24:47;13.83;;;2.50;;
5333;SDS011;2689;50.954;7.116;2023-11-19T05:27:14;18.13;;;4.00;;
5333;SDS011;2689;50.954;7.116;2023-11-19T05:29:41;11.27;;;2.70;;
5333;SDS011;2689;50.954;7.116;2023-11-19T05:32:08;12.33;;;3.20;;
5333;SDS011;2689;50.954;7.116;2023-11-19T05:34:35;13.97;;;3.00;;
5333;SDS011;2689;50.954;7.116;2023-11-19T05:37:03;18.30;;;3.80;;
5333;SDS011;2689;50.954;7.116;2023-11-19T05:39:30;20.53;;;2.97;;
5333;SDS011;2689;50.954;7.116;2023-11-19T05:41:57;11.83;;;2.60;;
5333;SDS011;2689;50.954;7.116;2023-11-19T05:44:24;16.57;;;2.93;;
5333;SDS011;2689;50.954;7.116;2023-11-19T05:46:50;16.63;;;3.33;;
5333;SDS011;2689;50.954;7.116;2023-11-19T05:49:17;15.33;;;3.07;;
5333;SDS011;2689;50.954;7.116;2023-11-19T05:51:44;16.40;;;2.93;;
5333;SDS011;2689;50.954;7.116;2023-11-19T05:54:12;15.07;;;3.67;;
5333;SDS011;2689;50.954;7.116;2023-11-19T05:56:39;13.00;;;2.83;;
5333;SDS011;2689;50.954;7.116;2023-11-19T05:59:06;21.20;;;4.73;;
5333;SDS011;2689;50.954;7.116;2023-11-19T06:01:39;11.30;;;3.00;;
5333;SDS011;2689;50.954;7.116;2023-11-19T06:04:07;16.60;;;3.27;;
5333;SDS011;2689;50.954;7.116;2023-11-19T06:06:35;18.70;;;3.73;;
5333;SDS011;2689;50.954;7.116;2023-11-19T06:09:01;12.27;;;2.90;;
5333;SDS011;2689;50.954;7.116;2023-11-19T06:11:32;23.60;;;3.70;;
5333;SDS011;2689;50.954;7.116;2023-11-19T06:14:01;15.20;;;4.10;;
5333;SDS011;2689;50.954;7.116;2023-11-19T06:16:30;14.53;;;3.03;;
5333;SDS011;2689;50.954;7.116;2023-11-19T06:18:57;12.97;;;3.17;;
5333;SDS011;2689;50.954;7.116;2023-11-19T06:21:24;14.83;;;3.43;;
5333;SDS011;2689;50.954;7.116;2023-11-19T06:23:51;16.43;;;3.80;;
5333;SDS011;2689;50.954;7.116;2023-11-19T06:26:18;18.87;;;3.60;;
5333;SDS011;2689;50.954;7.116;2023-11-19T06:28:48;17.53;;;3.83;;
5333;SDS011;2689;50.954;7.116;2023-11-19T06:31:15;13.50;;;3.60;;
5333;SDS011;2689;50.954;7.116;2023-11-19T06:33:42;16.50;;;3.37;;
5333;SDS011;2689;50.954;7.116;2023-11-19T06:36:08;16.43;;;4.17;;
5333;SDS011;2689;50.954;7.116;2023-11-19T06:38:35;16.80;;;4.43;;
5333;SDS011;2689;50.954;7.116;2023-11-19T06:41:05;15.73;;;3.70;;
5333;SDS011;2689;50.954;7.116;2023-11-19T06:43:33;23.87;;;4.40;;
5333;SDS011;2689;50.954;7.116;2023-11-19T06:46:01;23.53;;;3.80;;
5333;SDS011;2689;50.954;7.116;2023-11-19T06:48:30;12.33;;;3.23;;
5333;SDS011;2689;50.954;7.116;2023-11-19T06:50:57;20.40;;;3.03;;
5333;SDS011;2689;50.954;7.116;2023-11-19T06:53:24;24.67;;;5.03;;
5333;SDS011;2689;50.954;7.116;2023-11-19T06:55:52;19.40;;;3.60;;
5333;SDS011;2689;50.954;7.116;2023-11-19T06:58:19;19.00;;;3.97;;
5333;SDS011;2689;50.954;7.116;2023-11-19T07:00:46;20.43;;;3.60;;
5333;SDS011;2689;50.954;7.116;2023-11-19T07:03:16;20.60;;;4.90;;
5333;SDS011;2689;50.954;7.116;2023-11-19T07:05:42;21.17;;;4.20;;
5333;SDS011;2689;50.954;7.116;2023-11-19T07:08:09;17.30;;;4.40;;
5333;SDS011;2689;50.954;7.116;2023-11-19T07:10:36;11.73;;;3.00;;
5333;SDS011;2689;50.954;7.116;2023-11-19T07:13:03;20.27;;;3.60;;
5333;SDS011;2689;50.954;7.116;2023-11-19T07:15:31;19.63;;;3.90;;
5333;SDS011;2689;50.954;7.116;2023-11-19T07:17:58;23.93;;;4.40;;
5333;SDS011;2689;50.954;7.116;2023-11-19T07:20:26;20.30;;;4.10;;
5333;SDS011;2689;50.954;7.116;2023-11-19T07:22:58;14.80;;;4.73;;
5333;SDS011;2689;50.954;7.116;2023-11-19T07:25:25;17.37;;;4.00;;
5333;SDS011;2689;50.954;7.116;2023-11-19T07:27:52;17.30;;;4.13;;
5333;SDS011;2689;50.954;7.116;2023-11-19T07:30:19;12.33;;;3.47;;
5333;SDS011;2689;50.954;7.116;2023-11-19T07:32:45;20.50;;;4.00;;
5333;SDS011;2689;50.954;7.116;2023-11-19T07:35:13;11.43;;;2.93;;
5333;SDS011;2689;50.954;7.116;2023-11-19T07:37:42;13.67;;;3.70;;
5333;SDS011;2689;50.954;7.116;2023-11-19T07:40:09;20.10;;;5.63;;
5333;SDS011;2689;50.954;7.116;2023-11-19T07:42:36;14.47;;;3.77;;
5333;SDS011;2689;50.954;7.116;2023-11-19T07:45:03;13.63;;;3.63;;
5333;SDS011;2689;50.954;7.116;2023-11-19T07:47:32;14.80;;;3.53;;
5333;SDS011;2689;50.954;7.116;2023-11-19T07:49:59;15.50;;;3.47;;
5333;SDS011;2689;50.954;7.116;2023-11-19T07:52:26;18.63;;;4.33;;
5333;SDS011;2689;50.954;7.116;2023-11-19T07:54:54;21.07;;;4.83;;
5333;SDS011;2689;50.954;7.116;2023-11-19T07:57:21;19.03;;;3.70;;
5333;SDS011;2689;50.954;7.116;2023-11-19T07:59:49;19.50;;;4.17;;
5333;SDS011;2689;50.954;7.116;2023-11-19T08:02:16;22.53;;;5.27;;
5333;SDS011;2689;50.954;7.116;2023-11-19T08:04:43;13.97;;;4.37;;
5333;SDS011;2689;50.954;7.116;2023-11-19T08:07:11;13.97;;;4.00;;
5333;SDS011;2689;50.954;7.116;2023-11-19T08:09:37;16.93;;;3.90;;
5333;SDS011;2689;50.954;7.116;2023-11-19T08:12:06;16.20;;;3.80;;
5333;SDS011;2689;50.954;7.116;2023-11-19T08:14:33;14.07;;;3.60;;
5333;SDS011;2689;50.954;7.116;2023-11-19T08:17:02;16.77;;;4.60;;
5333;SDS011;2689;50.954;7.116;2023-11-19T08:19:29;13.97;;;4.37;;
5333;SDS011;2689;50.954;7.116;2023-11-19T08:21:56;15.70;;;3.90;;
5333;SDS011;2689;50.954;7.116;2023-11-19T08:24:23;23.20;;;5.07;;
5333;SDS011;2689;50.954;7.116;2023-11-19T08:26:50;19.30;;;6.23;;
5333;SDS011;2689;50.954;7.116;2023-11-19T08:29:18;20.37;;;4.70;;
5333;SDS011;2689;50.954;7.116;2023-11-19T08:31:46;19.73;;;4.57;;
5333;SDS011;2689;50.954;7.116;2023-11-19T08:34:13;20.27;;;3.87;;
5333;SDS011;2689;50.954;7.116;2023-11-19T08:36:40;14.67;;;4.13;;
5333;SDS011;2689;50.954;7.116;2023-11-19T08:39:07;12.63;;;3.67;;
5333;SDS011;2689;50.954;7.116;2023-11-19T08:41:34;21.47;;;5.13;;
5333;SDS011;2689;50.954;7.116;2023-11-19T08:44:03;18.73;;;4.13;;
5333;SDS011;2689;50.954;7.116;2023-11-19T08:46:32;14.83;;;3.33;;
5333;SDS011;2689;50.954;7.116;2023-11-19T08:48:58;21.07;;;4.57;;
5333;SDS011;2689;50.954;7.116;2023-11-19T08:51:25;15.53;;;4.13;;
5333;SDS011;2689;50.954;7.116;2023-11-19T08:53:53;16.60;;;5.50;;
5333;SDS011;2689;50.954;7.116;2023-11-19T08:56:20;19.10;;;3.80;;
5333;SDS011;2689;50.954;7.116;2023-11-19T08:58:47;12.40;;;3.80;;
5333;SDS011;2689;50.954;7.116;2023-11-19T09:01:14;20.73;;;4.23;;
5333;SDS011;2689;50.954;7.116;2023-11-19T09:03:42;14.70;;;3.60;;
5333;SDS011;2689;50.954;7.116;2023-11-19T09:06:09;18.60;;;4.20;;
5333;SDS011;2689;50.954;7.116;2023-11-19T09:08:36;8.07;;;2.43;;
5333;SDS011;2689;50.954;7.116;2023-11-19T09:11:06;20.77;;;4.67;;
5333;SDS011;2689;50.954;7.116;2023-11-19T09:13:34;20.57;;;4.37;;
5333;SDS011;2689;50.954;7.116;2023-11-19T09:16:00;14.87;;;3.30;;
5333;SDS011;2689;50.954;7.116;2023-11-19T09:18:28;21.47;;;4.77;;
5333;SDS011;2689;50.954;7.116;2023-11-19T09:20:57;13.80;;;3.67;;
5333;SDS011;2689;50.954;7.116;2023-11-19T09:23:24;19.40;;;4.07;;
5333;SDS011;2689;50.954;7.116;2023-11-19T09:25:53;21.23;;;4.07;;
5333;SDS011;2689;50.954;7.116;2023-11-19T09:28:20;19.10;;;3.60;;
5333;SDS011;2689;50.954;7.116;2023-11-19T09:30:47;22.03;;;4.53;;
5333;SDS011;2689;50.954;7.116;2023-11-19T09:33:15;13.90;;;4.03;;
5333;SDS011;2689;50.954;7.116;2023-11-19T09:35:42;15.50;;;4.83;;
5333;SDS011;2689;50.954;7.116;2023-11-19T09:38:11;22.07;;;3.20;;
5333;SDS011;2689;50.954;7.116;2023-11-19T09:40:37;20.37;;;4.40;;
5333;SDS011;2689;50.954;7.116;2023-11-19T09:43:04;17.97;;;4.20;;
5333;SDS011;2689;50.954;7.116;2023-11-19T09:45:31;20.53;;;4.20;;
5333;SDS011;2689;50.954;7.116;2023-11-19T09:48:05;18.40;;;4.83;;
5333;SDS011;2689;50.954;7.116;2023-11-19T09:50:32;23.17;;;5.33;;
5333;SDS011;2689;50.954;7.116;2023-11-19T09:52:59;22.87;;;4.73;;
5333;SDS011;2689;50.954;7.116;2023-11-19T09:55:27;9.30;;;3.47;;
5333;SDS011;2689;50.954;7.116;2023-11-19T09:57:54;18.13;;;4.40;;
5333;SDS011;2689;50.954;7.116;2023-11-19T10:00:24;11.73;;;4.40;;
5333;SDS011;2689;50.954;7.116;2023-11-19T10:02:57;16.63;;;3.47;;
5333;SDS011;2689;50.954;7.116;2023-11-19T10:05:25;13.00;;;4.40;;
5333;SDS011;2689;50.954;7.116;2023-11-19T10:07:52;18.40;;;4.50;;
5333;SDS011;2689;50.954;7.116;2023-11-19T10:10:20;13.90;;;3.80;;
5333;SDS011;2689;50.954;7.116;2023-11-19T10:12:52;17.00;;;4.27;;
5333;SDS011;2689;50.954;7.116;2023-11-19T10:15:21;17.33;;;4.00;;
5333;SDS011;2689;50.954;7.116;2023-11-19T10:17:49;17.77;;;3.40;;
5333;SDS011;2689;50.954;7.116;2023-11-19T10:20:16;19.50;;;4.20;;
5333;SDS011;2689;50.954;7.116;2023-11-19T10:22:43;25.30;;;5.60;;
5333;SDS011;2689;50.954;7.116;2023-11-19T10:25:21;15.63;;;4.13;;
5333;SDS011;2689;50.954;7.116;2023-11-19T10:27:49;17.87;;;4.30;;
5333;SDS011;2689;50.954;7.116;2023-11-19T10:30:18;17.50;;;4.20;;
5333;SDS011;2689;50.954;7.116;2023-11-19T10:32:52;14.70;;;4.00;;
5333;SDS011;2689;50.954;7.116;2023-11-19T10:35:30;11.83;;;2.53;;
5333;SDS011;2689;50.954;7.116;2023-11-19T10:37:58;22.97;;;4.70;;
5333;SDS011;2689;50.954;7.116;2023-11-19T10:43:12;11.03;;;2.97;;
5333;SDS011;2689;50.954;7.116;2023-11-19T10:45:40;10.07;;;2.90;;
5333;SDS011;2689;50.954;7.116;2023-11-19T10:48:07;15.80;;;4.57;;
5333;SDS011;2689;50.954;7.116;2023-11-19T10:50:35;17.27;;;3.80;;
5333;SDS011;2689;50.954;7.116;2023-11-19T10:53:03;17.03;;;4.03;;
5333;SDS011;2689;50.954;7.116;2023-11-19T10:55:31;11.17;;;3.47;;
5333;SDS011;2689;50.954;7.116;2023-11-19T10:58:00;16.37;;;4.10;;
5333;SDS011;2689;50.954;7.116;2023-11-19T11:00:29;18.67;;;4.10;;
5333;SDS011;2689;50.954;7.116;2023-11-19T11:03:01;15.60;;;3.80;;
5333;SDS011;2689;50.954;7.116;2023-11-19T11:05:32;13.10;;;3.67;;
5333;SDS011;2689;50.954;7.116;2023-11-19T11:08:00;12.40;;;2.97;;
5333;SDS011;2689;50.954;7.116;2023-11-19T11:10:27;15.93;;;4.13;;
5333;SDS011;2689;50.954;7.116;2023-11-19T11:13:00;19.00;;;4.00;;
5333;SDS011;2689;50.954;7.116;2023-11-19T11:15:30;14.33;;;4.17;;
5333;SDS011;2689;50.954;7.116;2023-11-19T11:17:59;18.30;;;3.80;;
5333;SDS011;2689;50.954;7.116;2023-11-19T11:20:28;23.33;;;5.00;;
5333;SDS011;2689;50.954;7.116;2023-11-19T11:23:03;19.60;;;5.53;;
5333;SDS011;2689;50.954;7.116;2023-11-19T11:25:43;18.33;;;3.73;;
5333;SDS011;2689;50.954;7.116;2023-11-19T11:28:23;18.67;;;4.37;;
5333;SDS011;2689;50.954;7.116;2023-11-19T11:31:02;16.67;;;4.20;;
5333;SDS011;2689;50.954;7.116;2023-11-19T11:33:41;25.20;;;4.20;;
5333;SDS011;2689;50.954;7.116;2023-11-19T11:36:24;9.30;;;3.27;;
5333;SDS011;2689;50.954;7.116;2023-11-19T11:38:52;12.40;;;3.40;;
5333;SDS011;2689;50.954;7.116;2023-11-19T11:41:25;30.17;;;6.40;;
5333;SDS011;2689;50.954;7.116;2023-11-19T11:43:52;18.47;;;5.13;;
5333;SDS011;2689;50.954;7.116;2023-11-19T11:49:26;13.70;;;4.03;;
5333;SDS011;2689;50.954;7.116;2023-11-19T11:52:01;21.73;;;4.20;;
5333;SDS011;2689;50.954;7.116;2023-11-19T11:54:29;18.77;;;4.00;;
5333;SDS011;2689;50.954;7.116;2023-11-19T11:57:03;15.33;;;3.23;;
5333;SDS011;2689;50.954;7.116;2023-11-19T11:59:45;17.27;;;4.20;;
5333;SDS011;2689;50.954;7.116;2023-11-19T12:02:13;14.73;;;3.87;;
5333;SDS011;2689;50.954;7.116;2023-11-19T12:04:43;16.00;;;3.93;;
5333;SDS011;2689;50.954;7.116;2023-11-19T12:07:13;14.27;;;3.70;;
5333;SDS011;2689;50.954;7.116;2023-11-19T12:09:41;16.23;;;6.03;;
5333;SDS011;2689;50.954;7.116;2023-11-19T12:12:17;12.43;;;3.70;;
5333;SDS011;2689;50.954;7.116;2023-11-19T12:17:37;16.27;;;4.43;;
5333;SDS011;2689;50.954;7.116;2023-11-19T12:20:08;12.97;;;3.20;;
5333;SDS011;2689;50.954;7.116;2023-11-19T12:22:36;15.27;;;3.77;;
5333;SDS011;2689;50.954;7.116;2023-11-19T12:25:04;10.53;;;2.90;;
5333;SDS011;2689;50.954;7.116;2023-11-19T12:27:32;13.97;;;4.30;;
5333;SDS011;2689;50.954;7.116;2023-11-19T12:29:59;14.30;;;2.70;;
5333;SDS011;2689;50.954;7.116;2023-11-19T12:32:26;12.13;;;3.10;;
5333;SDS011;2689;50.954;7.116;2023-11-19T12:34:52;12.83;;;3.43;;
5333;SDS011;2689;50.954;7.116;2023-11-19T12:37:21;10.80;;;3.43;;
5333;SDS011;2689;50.954;7.116;2023-11-19T12:39:48;12.20;;;3.17;;
5333;SDS011;2689;50.954;7.116;2023-11-19T12:42:15;15.80;;;3.23;;
5333;SDS011;2689;50.954;7.116;2023-11-19T12:44:53;13.07;;;4.27;;
5333;SDS011;2689;50.954;7.116;2023-11-19T12:47:21;11.53;;;3.00;;
5333;SDS011;2689;50.954;7.116;2023-11-19T12:49:55;23.07;;;3.30;;
5333;SDS011;2689;50.954;7.116;2023-11-19T12:52:24;12.50;;;3.63;;
5333;SDS011;2689;50.954;7.116;2023-11-19T12:54:51;16.70;;;4.27;;
5333;SDS011;2689;50.954;7.116;2023-11-19T12:57:18;15.97;;;3.67;;
5333;SDS011;2689;50.954;7.116;2023-11-19T12:59:54;12.60;;;3.63;;
5333;SDS011;2689;50.954;7.116;2023-11-19T13:02:21;21.20;;;3.90;;
5333;SDS011;2689;50.954;7.116;2023-11-19T13:04:49;12.97;;;3.50;;
5333;SDS011;2689;50.954;7.116;2023-11-19T13:07:20;12.70;;;4.03;;
5333;SDS011;2689;50.954;7.116;2023-11-19T13:09:48;17.07;;;3.93;;
5333;SDS011;2689;50.954;7.116;2023-11-19T13:12:18;14.83;;;3.77;;
5333;SDS011;2689;50.954;7.116;2023-11-19T13:14:45;15.53;;;3.70;;
5333;SDS011;2689;50.954;7.116;2023-11-19T13:17:13;14.07;;;4.20;;
5333;SDS011;2689;50.954;7.116;2023-11-19T13:19:40;15.13;;;3.60;;
5333;SDS011;2689;50.954;7.116;2023-11-19T13:22:07;15.90;;;3.10;;
5333;SDS011;2689;50.954;7.116;2023-11-19T13:24:34;14.83;;;3.17;;
5333;SDS011;2689;50.954;7.116;2023-11-19T13:27:02;12.10;;;3.23;;
5333;SDS011;2689;50.954;7.116;2023-11-19T13:29:29;12.77;;;2.33;;
5333;SDS011;2689;50.954;7.116;2023-11-19T13:31:56;17.63;;;3.83;;
5333;SDS011;2689;50.954;7.116;2023-11-19T13:34:23;15.93;;;3.80;;
5333;SDS011;2689;50.954;7.116;2023-11-19T13:36:50;9.97;;;3.00;;
5333;SDS011;2689;50.954;7.116;2023-11-19T13:39:19;15.90;;;3.53;;
5333;SDS011;2689;50.954;7.116;2023-11-19T13:41:48;10.53;;;3.20;;
5333;SDS011;2689;50.954;7.116;2023-11-19T13:44:17;11.80;;;3.77;;
5333;SDS011;2689;50.954;7.116;2023-11-19T13:46:44;14.70;;;3.70;;
5333;SDS011;2689;50.954;7.116;2023-11-19T13:49:12;8.77;;;2.87;;
5333;SDS011;2689;50.954;7.116;2023-11-19T13:51:39;12.37;;;3.47;;
5333;SDS011;2689;50.954;7.116;2023-11-19T13:54:06;18.33;;;3.10;;
5333;SDS011;2689;50.954;7.116;2023-11-19T13:56:32;17.00;;;3.50;;
5333;SDS011;2689;50.954;7.116;2023-11-19T13:58:59;14.13;;;3.90;;
5333;SDS011;2689;50.954;7.116;2023-11-19T14:01:28;16.10;;;4.70;;
5333;SDS011;2689;50.954;7.116;2023-11-19T14:03:56;20.63;;;4.50;;
5333;SDS011;2689;50.954;7.116;2023-11-19T14:06:22;14.03;;;3.73;;
5333;SDS011;2689;50.954;7.116;2023-11-19T14:08:49;19.27;;;4.90;;
5333;SDS011;2689;50.954;7.116;2023-11-19T14:11:16;15.77;;;4.70;;
5333;SDS011;2689;50.954;7.116;2023-11-19T14:13:43;20.70;;;4.90;;
5333;SDS011;2689;50.954;7.116;2023-11-19T14:16:11;21.77;;;4.07;;
5333;SDS011;2689;50.954;7.116;2023-11-19T14:18:39;14.20;;;4.53;;
5333;SDS011;2689;50.954;7.116;2023-11-19T14:21:06;18.10;;;3.57;;
5333;SDS011;2689;50.954;7.116;2023-11-19T14:23:33;13.80;;;4.13;;
5333;SDS011;2689;50.954;7.116;2023-11-19T14:26:00;20.80;;;4.60;;
5333;SDS011;2689;50.954;7.116;2023-11-19T14:28:27;17.23;;;4.37;;
5333;SDS011;2689;50.954;7.116;2023-11-19T14:30:56;18.07;;;4.10;;
5333;SDS011;2689;50.954;7.116;2023-11-19T14:33:23;12.63;;;3.20;;
5333;SDS011;2689;50.954;7.116;2023-11-19T14:35:51;19.90;;;4.03;;
5333;SDS011;2689;50.954;7.116;2023-11-19T14:38:18;17.90;;;4.00;;
5333;SDS011;2689;50.954;7.116;2023-11-19T14:40:45;11.50;;;3.93;;
5333;SDS011;2689;50.954;7.116;2023-11-19T14:43:13;16.67;;;3.90;;
5333;SDS011;2689;50.954;7.116;2023-11-19T14:45:40;14.47;;;4.03;;
5333;SDS011;2689;50.954;7.116;2023-11-19T14:48:07;17.60;;;2.73;;
5333;SDS011;2689;50.954;7.116;2023-11-19T14:50:35;11.70;;;2.83;;
5333;SDS011;2689;50.954;7.116;2023-11-19T14:53:03;8.40;;;2.83;;
5333;SDS011;2689;50.954;7.116;2023-11-19T14:55:30;15.70;;;3.30;;
5333;SDS011;2689;50.954;7.116;2023-11-19T14:57:58;8.80;;;2.80;;
5333;SDS011;2689;50.954;7.116;2023-11-19T15:00:25;10.87;;;2.40;;
5333;SDS011;2689;50.954;7.116;2023-11-19T15:02:52;11.50;;;3.30;;
5333;SDS011;2689;50.954;7.116;2023-11-19T15:05:19;12.90;;;2.80;;
5333;SDS011;2689;50.954;7.116;2023-11-19T15:07:46;15.50;;;3.27;;
5333;SDS011;2689;50.954;7.116;2023-11-19T15:10:14;10.93;;;2.50;;
5333;SDS011;2689;50.954;7.116;2023-11-19T15:12:41;13.10;;;3.43;;
5333;SDS011;2689;50.954;7.116;2023-11-19T15:15:08;12.30;;;3.67;;
5333;SDS011;2689;50.954;7.116;2023-11-19T15:17:38;17.67;;;4.13;;
5333;SDS011;2689;50.954;7.116;2023-11-19T15:20:06;12.27;;;2.80;;
5333;SDS011;2689;50.954;7.116;2023-11-19T15:22:33;13.90;;;3.60;;
5333;SDS011;2689;50.954;7.116;2023-11-19T15:25:00;13.33;;;3.03;;